sensor_id;sensor_type;location;lat;lon;timestamp;temperature;humidity
44886;DHT22;36669;51.428;21.162;2022-08-24T00:00:14;20.00;99.90
44886;DHT22;36669;51.428;21.162;2022-08-24T00:02:40;20.00;99.90
44886;DHT22;36669;51.428;21.162;2022-08-24T00:05:06;20.00;99.90
44886;DHT22;36669;51.428;21.162;2022-08-24T00:07:31;19.90;99.90
44886;DHT22;36669;51.428;21.162;2022-08-24T00:09:57;19.90;99.90
44886;DHT22;36669;51.428;21.162;2022-08-24T00:12:23;19.90;99.90
44886;DHT22;36669;51.428;21.162;2022-08-24T00:14:49;19.90;99.90
44886;DHT22;36669;51.428;21.162;2022-08-24T00:17:15;19.90;99.90
44886;DHT22;36669;51.428;21.162;2022-08-24T00:19:40;19.90;99.90
44886;DHT22;36669;51.428;21.162;2022-08-24T00:22:06;19.90;99.90
44886;DHT22;36669;51.428;21.162;2022-08-24T00:24:32;19.90;99.90
44886;DHT22;36669;51.428;21.162;2022-08-24T00:26:59;19.90;99.90
44886;DHT22;36669;51.428;21.162;2022-08-24T00:29:26;19.90;99.90
44886;DHT22;36669;51.428;21.162;2022-08-24T00:31:51;19.80;99.90
44886;DHT22;36669;51.428;21.162;2022-08-24T00:34:17;19.80;99.90
44886;DHT22;36669;51.428;21.162;2022-08-24T00:36:44;19.80;99.90
44886;DHT22;36669;51.428;21.162;2022-08-24T00:39:11;19.70;99.90
44886;DHT22;36669;51.428;21.162;2022-08-24T00:41:45;19.70;99.90
44886;DHT22;36669;51.428;21.162;2022-08-24T00:44:13;19.70;99.90
44886;DHT22;36669;51.428;21.162;2022-08-24T00:46:55;19.70;99.90
44886;DHT22;36669;51.428;21.162;2022-08-24T00:49:37;19.70;99.90
44886;DHT22;36669;51.428;21.162;2022-08-24T00:52:20;19.70;99.90
44886;DHT22;36669;51.428;21.162;2022-08-24T00:54:52;19.70;99.90
44886;DHT22;36669;51.428;21.162;2022-08-24T00:57:24;19.60;99.90
44886;DHT22;36669;51.428;21.162;2022-08-24T00:59:54;19.60;99.90
44886;DHT22;36669;51.428;21.162;2022-08-24T01:02:24;19.60;99.90
44886;DHT22;36669;51.428;21.162;2022-08-24T01:05:00;19.60;99.90
44886;DHT22;36669;51.428;21.162;2022-08-24T01:07:27;19.70;99.90
44886;DHT22;36669;51.428;21.162;2022-08-24T01:09:56;19.60;99.90
44886;DHT22;36669;51.428;21.162;2022-08-24T01:12:24;19.70;99.90
44886;DHT22;36669;51.428;21.162;2022-08-24T01:14:51;19.70;99.90
44886;DHT22;36669;51.428;21.162;2022-08-24T01:17:17;19.60;99.90
44886;DHT22;36669;51.428;21.162;2022-08-24T01:19:49;19.70;99.90
44886;DHT22;36669;51.428;21.162;2022-08-24T01:22:25;19.60;99.90
44886;DHT22;36669;51.428;21.162;2022-08-24T01:24:54;19.60;99.90
44886;DHT22;36669;51.428;21.162;2022-08-24T01:27:20;19.70;99.90
44886;DHT22;36669;51.428;21.162;2022-08-24T01:29:46;19.60;99.90
44886;DHT22;36669;51.428;21.162;2022-08-24T01:32:13;19.60;99.90
44886;DHT22;36669;51.428;21.162;2022-08-24T01:34:38;19.60;99.90
44886;DHT22;36669;51.428;21.162;2022-08-24T01:37:08;19.70;99.90
44886;DHT22;36669;51.428;21.162;2022-08-24T01:39:40;19.70;99.90
44886;DHT22;36669;51.428;21.162;2022-08-24T01:42:07;19.70;99.90
44886;DHT22;36669;51.428;21.162;2022-08-24T01:44:34;19.70;99.90
44886;DHT22;36669;51.428;21.162;2022-08-24T01:47:01;19.70;99.90
44886;DHT22;36669;51.428;21.162;2022-08-24T01:49:30;19.70;99.90
44886;DHT22;36669;51.428;21.162;2022-08-24T01:51:56;19.60;99.90
44886;DHT22;36669;51.428;21.162;2022-08-24T01:54:23;19.60;99.90
44886;DHT22;36669;51.428;21.162;2022-08-24T01:56:49;19.60;99.90
44886;DHT22;36669;51.428;21.162;2022-08-24T01:59:15;19.60;99.90
44886;DHT22;36669;51.428;21.162;2022-08-24T02:01:49;19.60;99.90
44886;DHT22;36669;51.428;21.162;2022-08-24T02:04:16;19.60;99.90
44886;DHT22;36669;51.428;21.162;2022-08-24T02:06:41;19.60;99.90
44886;DHT22;36669;51.428;21.162;2022-08-24T02:09:07;19.60;99.90
44886;DHT22;36669;51.428;21.162;2022-08-24T02:11:35;19.50;99.90
44886;DHT22;36669;51.428;21.162;2022-08-24T02:14:01;19.60;99.90
44886;DHT22;36669;51.428;21.162;2022-08-24T02:16:28;19.50;99.90
44886;DHT22;36669;51.428;21.162;2022-08-24T02:18:56;19.50;99.90
44886;DHT22;36669;51.428;21.162;2022-08-24T02:21:21;19.50;99.90
44886;DHT22;36669;51.428;21.162;2022-08-24T02:23:47;19.50;99.90
44886;DHT22;36669;51.428;21.162;2022-08-24T02:26:13;19.50;99.90
44886;DHT22;36669;51.428;21.162;2022-08-24T02:28:39;19.50;99.90
44886;DHT22;36669;51.428;21.162;2022-08-24T02:31:06;19.40;99.90
44886;DHT22;36669;51.428;21.162;2022-08-24T02:33:33;19.50;99.90
44886;DHT22;36669;51.428;21.162;2022-08-24T02:35:59;19.50;99.90
44886;DHT22;36669;51.428;21.162;2022-08-24T02:38:24;19.50;99.90
44886;DHT22;36669;51.428;21.162;2022-08-24T02:40:50;19.50;99.90
44886;DHT22;36669;51.428;21.162;2022-08-24T02:43:15;19.40;99.90
44886;DHT22;36669;51.428;21.162;2022-08-24T02:45:43;19.40;99.90
44886;DHT22;36669;51.428;21.162;2022-08-24T02:48:09;19.40;99.90
44886;DHT22;36669;51.428;21.162;2022-08-24T02:50:44;19.40;99.90
44886;DHT22;36669;51.428;21.162;2022-08-24T02:53:12;19.40;99.90
44886;DHT22;36669;51.428;21.162;2022-08-24T02:55:40;19.40;99.90
44886;DHT22;36669;51.428;21.162;2022-08-24T02:58:07;19.40;99.90
44886;DHT22;36669;51.428;21.162;2022-08-24T03:00:33;19.40;99.90
44886;DHT22;36669;51.428;21.162;2022-08-24T03:02:59;19.40;99.90
44886;DHT22;36669;51.428;21.162;2022-08-24T03:05:24;19.40;99.90
44886;DHT22;36669;51.428;21.162;2022-08-24T03:07:50;19.30;99.90
44886;DHT22;36669;51.428;21.162;2022-08-24T03:10:17;19.30;99.90
44886;DHT22;36669;51.428;21.162;2022-08-24T03:12:44;19.30;99.90
44886;DHT22;36669;51.428;21.162;2022-08-24T03:15:10;19.30;99.90
44886;DHT22;36669;51.428;21.162;2022-08-24T03:17:37;19.30;99.90
44886;DHT22;36669;51.428;21.162;2022-08-24T03:20:05;19.20;99.90
44886;DHT22;36669;51.428;21.162;2022-08-24T03:22:31;19.20;99.90
44886;DHT22;36669;51.428;21.162;2022-08-24T03:24:57;19.20;99.90
44886;DHT22;36669;51.428;21.162;2022-08-24T03:27:22;19.20;99.90
44886;DHT22;36669;51.428;21.162;2022-08-24T03:29:48;19.20;99.90
44886;DHT22;36669;51.428;21.162;2022-08-24T03:32:13;19.20;99.90
44886;DHT22;36669;51.428;21.162;2022-08-24T03:34:39;19.20;99.90
44886;DHT22;36669;51.428;21.162;2022-08-24T03:37:05;19.20;99.90
44886;DHT22;36669;51.428;21.162;2022-08-24T03:39:30;19.30;99.90
44886;DHT22;36669;51.428;21.162;2022-08-24T03:41:56;19.30;99.90
44886;DHT22;36669;51.428;21.162;2022-08-24T03:44:23;19.30;99.90
44886;DHT22;36669;51.428;21.162;2022-08-24T03:46:50;19.30;99.90
44886;DHT22;36669;51.428;21.162;2022-08-24T03:49:16;19.30;99.90
44886;DHT22;36669;51.428;21.162;2022-08-24T03:51:41;19.30;99.90
44886;DHT22;36669;51.428;21.162;2022-08-24T03:54:08;19.30;99.90
44886;DHT22;36669;51.428;21.162;2022-08-24T03:56:34;19.30;99.90
44886;DHT22;36669;51.428;21.162;2022-08-24T03:58:59;19.30;99.90
44886;DHT22;36669;51.428;21.162;2022-08-24T04:01:25;19.40;99.90
44886;DHT22;36669;51.428;21.162;2022-08-24T04:03:51;19.40;99.90
44886;DHT22;36669;51.428;21.162;2022-08-24T04:06:21;19.30;99.90
44886;DHT22;36669;51.428;21.162;2022-08-24T04:08:47;19.30;99.90
44886;DHT22;36669;51.428;21.162;2022-08-24T04:11:18;19.30;99.90
44886;DHT22;36669;51.428;21.162;2022-08-24T04:13:45;19.30;99.90
44886;DHT22;36669;51.428;21.162;2022-08-24T04:16:13;19.30;99.90
44886;DHT22;36669;51.428;21.162;2022-08-24T04:18:40;19.30;99.90
44886;DHT22;36669;51.428;21.162;2022-08-24T04:21:05;19.40;99.90
44886;DHT22;36669;51.428;21.162;2022-08-24T04:23:31;19.40;99.90
44886;DHT22;36669;51.428;21.162;2022-08-24T04:26:02;19.40;99.90
44886;DHT22;36669;51.428;21.162;2022-08-24T04:28:27;19.40;99.90
44886;DHT22;36669;51.428;21.162;2022-08-24T04:30:53;19.50;99.90
44886;DHT22;36669;51.428;21.162;2022-08-24T04:33:18;19.40;99.90
44886;DHT22;36669;51.428;21.162;2022-08-24T04:35:47;19.30;99.90
44886;DHT22;36669;51.428;21.162;2022-08-24T04:38:17;19.20;99.90
44886;DHT22;36669;51.428;21.162;2022-08-24T04:40:44;19.20;99.90
44886;DHT22;36669;51.428;21.162;2022-08-24T04:43:12;19.30;99.90
44886;DHT22;36669;51.428;21.162;2022-08-24T04:45:39;19.40;99.90
44886;DHT22;36669;51.428;21.162;2022-08-24T04:48:05;19.40;99.90
44886;DHT22;36669;51.428;21.162;2022-08-24T04:50:36;19.30;99.90
44886;DHT22;36669;51.428;21.162;2022-08-24T04:53:03;19.40;99.90
44886;DHT22;36669;51.428;21.162;2022-08-24T04:55:28;19.40;99.90
44886;DHT22;36669;51.428;21.162;2022-08-24T04:57:54;19.40;99.90
44886;DHT22;36669;51.428;21.162;2022-08-24T05:00:20;19.40;99.90
44886;DHT22;36669;51.428;21.162;2022-08-24T05:02:45;19.40;99.90
44886;DHT22;36669;51.428;21.162;2022-08-24T05:05:11;19.50;99.90
44886;DHT22;36669;51.428;21.162;2022-08-24T05:07:37;19.50;99.90
44886;DHT22;36669;51.428;21.162;2022-08-24T05:10:04;19.50;99.90
44886;DHT22;36669;51.428;21.162;2022-08-24T05:12:30;19.60;99.90
44886;DHT22;36669;51.428;21.162;2022-08-24T05:14:56;19.60;99.90
44886;DHT22;36669;51.428;21.162;2022-08-24T05:17:22;19.70;99.90
44886;DHT22;36669;51.428;21.162;2022-08-24T05:19:47;19.70;99.90
44886;DHT22;36669;51.428;21.162;2022-08-24T05:22:13;19.80;99.90
44886;DHT22;36669;51.428;21.162;2022-08-24T05:24:38;19.80;99.90
44886;DHT22;36669;51.428;21.162;2022-08-24T05:27:04;19.80;99.90
44886;DHT22;36669;51.428;21.162;2022-08-24T05:29:31;19.80;99.90
44886;DHT22;36669;51.428;21.162;2022-08-24T05:31:58;19.90;99.90
44886;DHT22;36669;51.428;21.162;2022-08-24T05:34:24;19.90;99.90
44886;DHT22;36669;51.428;21.162;2022-08-24T05:36:49;19.90;99.90
44886;DHT22;36669;51.428;21.162;2022-08-24T05:39:16;19.90;99.90
44886;DHT22;36669;51.428;21.162;2022-08-24T05:41:42;19.90;99.90
44886;DHT22;36669;51.428;21.162;2022-08-24T05:44:09;19.90;99.90
44886;DHT22;36669;51.428;21.162;2022-08-24T05:46:35;19.90;99.90
44886;DHT22;36669;51.428;21.162;2022-08-24T05:49:00;20.00;99.90
44886;DHT22;36669;51.428;21.162;2022-08-24T05:51:27;20.00;99.90
44886;DHT22;36669;51.428;21.162;2022-08-24T05:53:53;20.00;99.90
44886;DHT22;36669;51.428;21.162;2022-08-24T05:56:19;20.10;99.90
44886;DHT22;36669;51.428;21.162;2022-08-24T05:58:45;20.20;99.90
44886;DHT22;36669;51.428;21.162;2022-08-24T06:01:15;20.20;99.90
44886;DHT22;36669;51.428;21.162;2022-08-24T06:03:43;20.30;99.90
44886;DHT22;36669;51.428;21.162;2022-08-24T06:06:09;20.30;99.90
44886;DHT22;36669;51.428;21.162;2022-08-24T06:08:36;20.40;99.90
44886;DHT22;36669;51.428;21.162;2022-08-24T06:11:02;20.40;99.90
44886;DHT22;36669;51.428;21.162;2022-08-24T06:13:29;20.30;99.90
44886;DHT22;36669;51.428;21.162;2022-08-24T06:16:05;20.40;99.90
44886;DHT22;36669;51.428;21.162;2022-08-24T06:18:31;20.40;99.90
44886;DHT22;36669;51.428;21.162;2022-08-24T06:20:57;20.50;99.90
44886;DHT22;36669;51.428;21.162;2022-08-24T06:23:23;20.50;99.90
44886;DHT22;36669;51.428;21.162;2022-08-24T06:25:48;20.50;99.90
44886;DHT22;36669;51.428;21.162;2022-08-24T06:28:14;20.60;99.90
44886;DHT22;36669;51.428;21.162;2022-08-24T06:30:40;20.70;99.90
44886;DHT22;36669;51.428;21.162;2022-08-24T06:33:06;20.60;99.90
44886;DHT22;36669;51.428;21.162;2022-08-24T06:35:31;20.70;99.90
44886;DHT22;36669;51.428;21.162;2022-08-24T06:37:57;20.80;99.90
44886;DHT22;36669;51.428;21.162;2022-08-24T06:40:22;20.80;99.90
44886;DHT22;36669;51.428;21.162;2022-08-24T06:42:48;20.90;99.90
44886;DHT22;36669;51.428;21.162;2022-08-24T06:45:13;21.00;99.90
44886;DHT22;36669;51.428;21.162;2022-08-24T06:47:40;21.10;99.90
44886;DHT22;36669;51.428;21.162;2022-08-24T06:50:06;21.10;99.90
44886;DHT22;36669;51.428;21.162;2022-08-24T06:52:33;21.20;99.90
44886;DHT22;36669;51.428;21.162;2022-08-24T06:54:59;21.30;99.90
44886;DHT22;36669;51.428;21.162;2022-08-24T06:57:26;21.40;99.90
44886;DHT22;36669;51.428;21.162;2022-08-24T06:59:52;21.60;99.90
44886;DHT22;36669;51.428;21.162;2022-08-24T07:02:18;21.70;99.90
44886;DHT22;36669;51.428;21.162;2022-08-24T07:04:45;21.80;99.90
44886;DHT22;36669;51.428;21.162;2022-08-24T07:07:11;21.90;99.90
44886;DHT22;36669;51.428;21.162;2022-08-24T07:09:37;22.10;99.90
44886;DHT22;36669;51.428;21.162;2022-08-24T07:12:03;22.20;99.90
44886;DHT22;36669;51.428;21.162;2022-08-24T07:14:29;22.20;99.90
44886;DHT22;36669;51.428;21.162;2022-08-24T07:16:55;22.30;99.90
44886;DHT22;36669;51.428;21.162;2022-08-24T07:19:20;22.50;99.90
44886;DHT22;36669;51.428;21.162;2022-08-24T07:21:46;22.70;99.90
44886;DHT22;36669;51.428;21.162;2022-08-24T07:24:11;22.80;99.90
44886;DHT22;36669;51.428;21.162;2022-08-24T07:26:37;23.00;99.90
44886;DHT22;36669;51.428;21.162;2022-08-24T07:29:09;23.20;99.90
44886;DHT22;36669;51.428;21.162;2022-08-24T07:31:37;23.30;99.90
44886;DHT22;36669;51.428;21.162;2022-08-24T07:34:04;23.30;99.90
44886;DHT22;36669;51.428;21.162;2022-08-24T07:36:31;23.30;99.90
44886;DHT22;36669;51.428;21.162;2022-08-24T07:38:56;23.50;99.90
44886;DHT22;36669;51.428;21.162;2022-08-24T07:41:24;23.60;99.90
44886;DHT22;36669;51.428;21.162;2022-08-24T07:43:51;23.80;99.90
44886;DHT22;36669;51.428;21.162;2022-08-24T07:46:18;24.00;99.90
44886;DHT22;36669;51.428;21.162;2022-08-24T07:48:43;24.20;99.90
44886;DHT22;36669;51.428;21.162;2022-08-24T07:51:11;24.20;99.90
44886;DHT22;36669;51.428;21.162;2022-08-24T07:53:37;24.20;99.90
44886;DHT22;36669;51.428;21.162;2022-08-24T07:56:03;24.30;99.90
44886;DHT22;36669;51.428;21.162;2022-08-24T07:58:29;24.30;99.90
44886;DHT22;36669;51.428;21.162;2022-08-24T08:00:56;24.40;99.90
44886;DHT22;36669;51.428;21.162;2022-08-24T08:03:22;24.40;99.90
44886;DHT22;36669;51.428;21.162;2022-08-24T08:05:48;24.50;99.90
44886;DHT22;36669;51.428;21.162;2022-08-24T08:08:13;24.60;99.90
44886;DHT22;36669;51.428;21.162;2022-08-24T08:10:39;24.80;99.90
44886;DHT22;36669;51.428;21.162;2022-08-24T08:13:06;24.90;99.90
44886;DHT22;36669;51.428;21.162;2022-08-24T08:15:32;24.80;99.90
44886;DHT22;36669;51.428;21.162;2022-08-24T08:17:58;24.80;99.90
44886;DHT22;36669;51.428;21.162;2022-08-24T08:20:24;24.80;99.90
44886;DHT22;36669;51.428;21.162;2022-08-24T08:22:51;24.80;99.90
44886;DHT22;36669;51.428;21.162;2022-08-24T08:25:17;24.90;99.90
44886;DHT22;36669;51.428;21.162;2022-08-24T08:27:42;25.00;99.90
44886;DHT22;36669;51.428;21.162;2022-08-24T08:30:08;24.90;99.90
44886;DHT22;36669;51.428;21.162;2022-08-24T08:32:34;25.00;99.90
44886;DHT22;36669;51.428;21.162;2022-08-24T08:34:59;25.00;99.90
44886;DHT22;36669;51.428;21.162;2022-08-24T08:37:25;25.10;99.90
44886;DHT22;36669;51.428;21.162;2022-08-24T08:39:50;25.20;99.90
44886;DHT22;36669;51.428;21.162;2022-08-24T08:45:29;25.50;99.90
44886;DHT22;36669;51.428;21.162;2022-08-24T08:51:27;25.70;99.90
44886;DHT22;36669;51.428;21.162;2022-08-24T08:56:54;26.20;99.90
44886;DHT22;36669;51.428;21.162;2022-08-24T09:00:31;26.30;99.90
44886;DHT22;36669;51.428;21.162;2022-08-24T09:13:52;26.90;99.90
44886;DHT22;36669;51.428;21.162;2022-08-24T09:30:20;26.90;99.90
44886;DHT22;36669;51.428;21.162;2022-08-24T09:33:26;26.80;99.90
44886;DHT22;36669;51.428;21.162;2022-08-24T09:36:08;27.00;99.90
44886;DHT22;36669;51.428;21.162;2022-08-24T09:47:10;27.60;99.90
44886;DHT22;36669;51.428;21.162;2022-08-24T09:58:19;27.90;99.90
44886;DHT22;36669;51.428;21.162;2022-08-24T10:06:33;28.50;99.90
44886;DHT22;36669;51.428;21.162;2022-08-24T10:28:42;29.10;99.90
44886;DHT22;36669;51.428;21.162;2022-08-24T10:40:39;29.70;99.90
44886;DHT22;36669;51.428;21.162;2022-08-24T10:43:41;29.80;99.90
44886;DHT22;36669;51.428;21.162;2022-08-24T10:52:11;30.50;99.90
44886;DHT22;36669;51.428;21.162;2022-08-24T10:54:41;30.60;99.90
44886;DHT22;36669;51.428;21.162;2022-08-24T11:00:03;30.80;99.90
44886;DHT22;36669;51.428;21.162;2022-08-24T11:02:36;30.90;99.90
44886;DHT22;36669;51.428;21.162;2022-08-24T11:05:06;30.90;99.90
44886;DHT22;36669;51.428;21.162;2022-08-24T11:07:32;30.80;99.90
44886;DHT22;36669;51.428;21.162;2022-08-24T11:10:00;31.00;99.90
44886;DHT22;36669;51.428;21.162;2022-08-24T11:12:30;31.30;99.90
44886;DHT22;36669;51.428;21.162;2022-08-24T11:14:59;31.40;99.90
44886;DHT22;36669;51.428;21.162;2022-08-24T11:17:28;31.30;99.90
44886;DHT22;36669;51.428;21.162;2022-08-24T11:19:54;31.00;99.90
44886;DHT22;36669;51.428;21.162;2022-08-24T11:22:55;30.70;99.90
44886;DHT22;36669;51.428;21.162;2022-08-24T11:25:26;30.60;99.90
44886;DHT22;36669;51.428;21.162;2022-08-24T11:28:02;30.80;99.90
44886;DHT22;36669;51.428;21.162;2022-08-24T11:30:29;31.20;99.90
44886;DHT22;36669;51.428;21.162;2022-08-24T11:32:59;31.60;99.90
44886;DHT22;36669;51.428;21.162;2022-08-24T11:38:24;31.80;99.90
44886;DHT22;36669;51.428;21.162;2022-08-24T11:41:10;32.20;99.90
44886;DHT22;36669;51.428;21.162;2022-08-24T11:47:00;32.60;99.90
44886;DHT22;36669;51.428;21.162;2022-08-24T11:55:09;33.20;99.90
44886;DHT22;36669;51.428;21.162;2022-08-24T11:57:42;33.40;99.90
44886;DHT22;36669;51.428;21.162;2022-08-24T12:00:12;33.70;99.90
44886;DHT22;36669;51.428;21.162;2022-08-24T12:03:13;33.60;99.90
44886;DHT22;36669;51.428;21.162;2022-08-24T12:06:02;33.10;99.90
44886;DHT22;36669;51.428;21.162;2022-08-24T12:09:05;33.40;99.90
44886;DHT22;36669;51.428;21.162;2022-08-24T12:12:08;33.50;99.90
44886;DHT22;36669;51.428;21.162;2022-08-24T12:20:29;34.20;99.90
44886;DHT22;36669;51.428;21.162;2022-08-24T12:23:02;34.10;99.90
44886;DHT22;36669;51.428;21.162;2022-08-24T12:25:32;33.90;99.90
44886;DHT22;36669;51.428;21.162;2022-08-24T12:27:58;33.60;99.90
44886;DHT22;36669;51.428;21.162;2022-08-24T12:30:25;33.60;99.90
44886;DHT22;36669;51.428;21.162;2022-08-24T12:32:55;33.20;99.90
44886;DHT22;36669;51.428;21.162;2022-08-24T12:35:59;33.40;99.90
44886;DHT22;36669;51.428;21.162;2022-08-24T12:38:54;33.30;99.90
44886;DHT22;36669;51.428;21.162;2022-08-24T12:41:37;33.40;99.90
44886;DHT22;36669;51.428;21.162;2022-08-24T12:44:11;33.30;99.90
44886;DHT22;36669;51.428;21.162;2022-08-24T12:46:37;33.10;99.90
44886;DHT22;36669;51.428;21.162;2022-08-24T12:55:06;33.50;99.90
44886;DHT22;36669;51.428;21.162;2022-08-24T13:00:11;34.00;99.90
44886;DHT22;36669;51.428;21.162;2022-08-24T13:02:42;34.30;99.90
44886;DHT22;36669;51.428;21.162;2022-08-24T13:05:12;34.40;99.20
44886;DHT22;36669;51.428;21.162;2022-08-24T13:07:47;34.00;98.70
44886;DHT22;36669;51.428;21.162;2022-08-24T13:13:06;33.30;99.80
44886;DHT22;36669;51.428;21.162;2022-08-24T13:25:52;32.90;99.90
44886;DHT22;36669;51.428;21.162;2022-08-24T13:41:35;31.70;99.90
44886;DHT22;36669;51.428;21.162;2022-08-24T13:49:48;30.70;99.90
44886;DHT22;36669;51.428;21.162;2022-08-24T13:52:25;30.50;99.90
44886;DHT22;36669;51.428;21.162;2022-08-24T13:58:21;30.10;99.90
44886;DHT22;36669;51.428;21.162;2022-08-24T14:21:45;30.00;99.90
44886;DHT22;36669;51.428;21.162;2022-08-24T14:24:44;29.80;99.90
44886;DHT22;36669;51.428;21.162;2022-08-24T14:33:11;28.30;99.90
44886;DHT22;36669;51.428;21.162;2022-08-24T14:47:09;25.40;99.90
44886;DHT22;36669;51.428;21.162;2022-08-24T14:55:17;24.80;99.90
44886;DHT22;36669;51.428;21.162;2022-08-24T15:00:25;24.70;99.90
44886;DHT22;36669;51.428;21.162;2022-08-24T15:03:25;24.70;99.90
44886;DHT22;36669;51.428;21.162;2022-08-24T15:08:36;24.50;99.90
44886;DHT22;36669;51.428;21.162;2022-08-24T15:11:17;24.40;99.90
44886;DHT22;36669;51.428;21.162;2022-08-24T15:13:45;24.50;99.90
44886;DHT22;36669;51.428;21.162;2022-08-24T15:33:11;24.60;99.90
44886;DHT22;36669;51.428;21.162;2022-08-24T15:35:43;24.70;99.90
44886;DHT22;36669;51.428;21.162;2022-08-24T15:38:32;24.80;99.90
44886;DHT22;36669;51.428;21.162;2022-08-24T15:41:22;24.80;99.90
44886;DHT22;36669;51.428;21.162;2022-08-24T15:47:02;25.00;99.90
44886;DHT22;36669;51.428;21.162;2022-08-24T15:49:34;25.10;99.90
44886;DHT22;36669;51.428;21.162;2022-08-24T15:52:07;25.10;99.90
44886;DHT22;36669;51.428;21.162;2022-08-24T15:54:55;25.10;99.90
44886;DHT22;36669;51.428;21.162;2022-08-24T15:59:54;24.90;99.90
44886;DHT22;36669;51.428;21.162;2022-08-24T16:02:26;24.80;99.90
44886;DHT22;36669;51.428;21.162;2022-08-24T16:13:08;25.10;99.90
44886;DHT22;36669;51.428;21.162;2022-08-24T16:16:29;25.00;99.90
44886;DHT22;36669;51.428;21.162;2022-08-24T16:18:52;24.90;99.90
44886;DHT22;36669;51.428;21.162;2022-08-24T16:23:57;23.30;99.90
44886;DHT22;36669;51.428;21.162;2022-08-24T16:26:27;23.10;99.90
44886;DHT22;36669;51.428;21.162;2022-08-24T16:28:54;23.00;99.90
44886;DHT22;36669;51.428;21.162;2022-08-24T16:31:47;22.90;99.90
44886;DHT22;36669;51.428;21.162;2022-08-24T16:34:20;22.80;99.90
44886;DHT22;36669;51.428;21.162;2022-08-24T16:36:46;22.50;99.90
44886;DHT22;36669;51.428;21.162;2022-08-24T16:39:11;22.10;99.90
44886;DHT22;36669;51.428;21.162;2022-08-24T16:41:37;21.80;99.90
44886;DHT22;36669;51.428;21.162;2022-08-24T16:44:02;22.00;99.90
44886;DHT22;36669;51.428;21.162;2022-08-24T16:46:28;22.00;99.90
44886;DHT22;36669;51.428;21.162;2022-08-24T16:48:54;21.60;99.90
44886;DHT22;36669;51.428;21.162;2022-08-24T16:51:19;21.50;99.90
44886;DHT22;36669;51.428;21.162;2022-08-24T16:53:46;21.40;99.90
44886;DHT22;36669;51.428;21.162;2022-08-24T16:56:14;21.50;99.90
44886;DHT22;36669;51.428;21.162;2022-08-24T16:58:40;21.20;99.90
44886;DHT22;36669;51.428;21.162;2022-08-24T17:01:05;21.20;99.90
44886;DHT22;36669;51.428;21.162;2022-08-24T17:03:31;21.10;99.90
44886;DHT22;36669;51.428;21.162;2022-08-24T17:05:56;21.10;99.90
44886;DHT22;36669;51.428;21.162;2022-08-24T17:08:23;21.10;99.90
44886;DHT22;36669;51.428;21.162;2022-08-24T17:10:48;21.10;99.90
44886;DHT22;36669;51.428;21.162;2022-08-24T17:13:14;21.20;99.90
44886;DHT22;36669;51.428;21.162;2022-08-24T17:15:39;21.30;99.90
44886;DHT22;36669;51.428;21.162;2022-08-24T17:18:08;21.30;99.90
44886;DHT22;36669;51.428;21.162;2022-08-24T17:20:34;21.20;99.90
44886;DHT22;36669;51.428;21.162;2022-08-24T17:23:00;21.10;99.90
44886;DHT22;36669;51.428;21.162;2022-08-24T17:25:26;21.20;99.90
44886;DHT22;36669;51.428;21.162;2022-08-24T17:27:54;21.20;99.90
44886;DHT22;36669;51.428;21.162;2022-08-24T17:30:22;21.20;99.90
44886;DHT22;36669;51.428;21.162;2022-08-24T17:32:50;21.20;99.90
44886;DHT22;36669;51.428;21.162;2022-08-24T17:35:17;21.20;99.90
44886;DHT22;36669;51.428;21.162;2022-08-24T17:37:44;21.20;99.90
44886;DHT22;36669;51.428;21.162;2022-08-24T17:40:13;21.30;99.90
44886;DHT22;36669;51.428;21.162;2022-08-24T17:42:40;21.20;99.90
44886;DHT22;36669;51.428;21.162;2022-08-24T17:45:07;21.20;99.90
44886;DHT22;36669;51.428;21.162;2022-08-24T17:47:34;21.20;99.90
44886;DHT22;36669;51.428;21.162;2022-08-24T17:50:00;21.20;99.90
44886;DHT22;36669;51.428;21.162;2022-08-24T17:52:26;21.10;99.90
44886;DHT22;36669;51.428;21.162;2022-08-24T17:54:51;21.20;99.90
44886;DHT22;36669;51.428;21.162;2022-08-24T17:57:17;21.20;99.90
44886;DHT22;36669;51.428;21.162;2022-08-24T17:59:45;21.20;99.90
44886;DHT22;36669;51.428;21.162;2022-08-24T18:02:11;21.20;99.90
44886;DHT22;36669;51.428;21.162;2022-08-24T18:04:37;21.00;99.90
44886;DHT22;36669;51.428;21.162;2022-08-24T18:07:09;21.10;99.90
44886;DHT22;36669;51.428;21.162;2022-08-24T18:09:42;21.00;99.90
44886;DHT22;36669;51.428;21.162;2022-08-24T18:12:08;21.00;99.90
44886;DHT22;36669;51.428;21.162;2022-08-24T18:14:34;21.00;99.90
44886;DHT22;36669;51.428;21.162;2022-08-24T18:17:11;21.00;99.90
44886;DHT22;36669;51.428;21.162;2022-08-24T18:19:38;20.90;99.90
44886;DHT22;36669;51.428;21.162;2022-08-24T18:22:04;20.80;99.90
44886;DHT22;36669;51.428;21.162;2022-08-24T18:24:31;20.80;99.90
44886;DHT22;36669;51.428;21.162;2022-08-24T18:27:23;20.80;99.90
44886;DHT22;36669;51.428;21.162;2022-08-24T18:29:46;20.80;99.90
44886;DHT22;36669;51.428;21.162;2022-08-24T18:32:12;20.80;99.90
44886;DHT22;36669;51.428;21.162;2022-08-24T18:34:38;20.80;99.90
44886;DHT22;36669;51.428;21.162;2022-08-24T18:37:05;20.70;99.90
44886;DHT22;36669;51.428;21.162;2022-08-24T18:39:30;20.70;99.90
44886;DHT22;36669;51.428;21.162;2022-08-24T18:41:57;20.70;99.90
44886;DHT22;36669;51.428;21.162;2022-08-24T18:44:24;20.60;99.90
44886;DHT22;36669;51.428;21.162;2022-08-24T18:46:50;20.60;99.90
44886;DHT22;36669;51.428;21.162;2022-08-24T18:49:16;20.50;99.90
44886;DHT22;36669;51.428;21.162;2022-08-24T18:51:43;20.50;99.90
44886;DHT22;36669;51.428;21.162;2022-08-24T18:54:13;20.50;99.90
44886;DHT22;36669;51.428;21.162;2022-08-24T18:56:39;20.50;99.90
44886;DHT22;36669;51.428;21.162;2022-08-24T18:59:05;20.40;99.90
44886;DHT22;36669;51.428;21.162;2022-08-24T19:01:32;20.40;99.90
44886;DHT22;36669;51.428;21.162;2022-08-24T19:03:58;20.40;99.90
44886;DHT22;36669;51.428;21.162;2022-08-24T19:06:23;20.30;99.90
44886;DHT22;36669;51.428;21.162;2022-08-24T19:08:49;20.30;99.90
44886;DHT22;36669;51.428;21.162;2022-08-24T19:11:19;20.30;99.90
44886;DHT22;36669;51.428;21.162;2022-08-24T19:13:45;20.30;99.90
44886;DHT22;36669;51.428;21.162;2022-08-24T19:16:11;20.30;99.90
44886;DHT22;36669;51.428;21.162;2022-08-24T19:18:36;20.30;99.90
44886;DHT22;36669;51.428;21.162;2022-08-24T19:21:02;20.30;99.90
44886;DHT22;36669;51.428;21.162;2022-08-24T19:23:31;20.30;99.90
44886;DHT22;36669;51.428;21.162;2022-08-24T19:25:57;20.30;99.90